Ana Sayfa
METAR-TAF:

METAR-TAF

Havaalanları :

Pointe-Noire, Kongo

Enlem: 04-49S, Boylam: 011-54E, yükseklik: 17 m

Güncel hava durumu gözlemi

Rapor saat 21:00 UTC de 42 dakika önce yapıldı.
Rüzgar doğudan 4 kt
Sıcaklık 22°C
Nem 94%
Basınç 1012 hPa
Görüş mesafesi: 8000 m
700 ft yükseklikte az bulutlu

METAR: FCPP 262100Z 09004KT 8000 FEW007 22/21 Q1012 BECMG 2000 BR

Saat: 22:42 (21:42 UTC)

Tahmin

Rapor saat 17:00 UTC de 4 saat ve 42 dakika önce yapıldı.
Ayın 26'si saat 18 UTC'den ayın 27'si saat 18 UTC'ye kadar geçerli Tahmin
Rüzgar güney/güneybatıdan 4 kt
Görüş mesafesi: 8000 m
1000 ft yükseklikte parçalı bulutlu
2300 ft yükseklikte parçalı çok bulutlu
Olasılık 30%
ayın 27'si saat 12 UTC'den ayın 27'si saat 15 UTC'ye kadar
2000 ft yükseklikte parçalı bulutlu
3000 ft yükseklikte az bulutlu, Kümülonimbus.

TAF: FCPP 261700Z 2618/2718 20004KT 8000 SCT010 BKN023 PROB30 2712/2715 SCT020 FEW030CB

4.000'den fazla havaalanı için hava durumu gözlemleri ve tahminleri (METAR ve TAF raporları).

Kullanılabilir istasyonlar harita üzerinde sarı ve kırmızı noktalarla gösterilir.

İstasyonun adını görmek için fareyi noktanın üzerinde gezdirin.

Sonrasında hava gözlem ve tahminlerini görmek için tıklayın.

Haritayı değiştirmek için: yaklaştırmak için siyah artı işaretli yeşil düğmeye ve uzaklaştırmak için de eksi işaretli düğmeye hızla tıklayın; bitişik haritalar için yeşil okları kullanın.


METAR-TAF: